createdAt,value
2018-12-01T00:00:27.061Z,2.86
2018-12-01T00:01:07.661Z,2.85
2018-12-01T00:01:48.217Z,2.93
2018-12-01T00:02:28.797Z,2.83
2018-12-01T00:03:09.403Z,2.85
2018-12-01T00:03:49.993Z,2.85
2018-12-01T00:04:30.548Z,2.9
2018-12-01T00:05:11.113Z,2.9
2018-12-01T00:05:51.702Z,2.83
2018-12-01T00:06:32.263Z,2.89
2018-12-01T00:07:12.832Z,2.9
2018-12-01T00:07:53.402Z,2.83
2018-12-01T00:08:33.983Z,2.86
2018-12-01T00:09:14.559Z,2.92
2018-12-01T00:09:55.359Z,2.87
2018-12-01T00:10:35.910Z,2.86
2018-12-01T00:11:16.464Z,2.89
2018-12-01T00:11:57.014Z,2.89
2018-12-01T00:12:37.570Z,2.82
2018-12-01T00:13:18.119Z,2.89
2018-12-01T00:13:58.674Z,3.01
2018-12-01T00:14:39.226Z,2.92
2018-12-01T00:15:19.808Z,3
2018-12-01T00:16:00.392Z,2.86
2018-12-01T00:16:40.975Z,2.97
2018-12-01T00:17:21.538Z,2.97
2018-12-01T00:18:02.153Z,3.01
2018-12-01T00:18:42.714Z,2.98
2018-12-01T00:19:23.260Z,2.98
2018-12-01T00:20:03.825Z,3.04
2018-12-01T00:20:44.388Z,3.07
2018-12-01T00:21:24.954Z,3.07
2018-12-01T00:22:05.572Z,2.95
2018-12-01T00:22:46.085Z,2.98
2018-12-01T00:23:26.651Z,2.87
2018-12-01T00:24:07.227Z,2.92
2018-12-01T00:24:47.786Z,2.9
2018-12-01T00:25:28.357Z,2.89
2018-12-01T00:26:09.024Z,2.85
2018-12-01T00:26:49.507Z,2.86
2018-12-01T00:27:30.141Z,2.86
2018-12-01T00:28:10.715Z,2.79
2018-12-01T00:28:51.274Z,2.82
2018-12-01T00:29:31.838Z,2.87
2018-12-01T00:30:12.407Z,2.8
2018-12-01T00:30:52.984Z,2.79
2018-12-01T00:31:33.543Z,2.9
2018-12-01T00:32:14.109Z,2.75
2018-12-01T00:32:54.689Z,2.75
2018-12-01T00:33:35.250Z,2.75
2018-12-01T00:34:15.809Z,2.72
2018-12-01T00:34:56.365Z,2.77
2018-12-01T00:35:36.950Z,2.8
2018-12-01T00:36:17.535Z,2.75
2018-12-01T00:36:58.149Z,2.71
2018-12-01T00:37:38.713Z,2.77
2018-12-01T00:38:19.262Z,2.75
2018-12-01T00:38:59.820Z,2.69
2018-12-01T00:39:40.382Z,2.72
2018-12-01T00:40:20.969Z,2.71
2018-12-01T00:41:01.544Z,2.64
2018-12-01T00:41:42.107Z,2.74
2018-12-01T00:42:22.652Z,2.71
2018-12-01T00:43:03.227Z,2.71
2018-12-01T00:43:43.801Z,2.79
2018-12-01T00:44:24.453Z,2.69
2018-12-01T00:45:05.067Z,2.75
2018-12-01T00:45:45.619Z,2.77
2018-12-01T00:46:26.186Z,2.71
2018-12-01T00:47:06.744Z,2.71
2018-12-01T00:47:47.329Z,2.8
2018-12-01T00:48:27.902Z,2.77
2018-12-01T00:49:08.519Z,2.75
2018-12-01T00:49:49.080Z,2.69
2018-12-01T00:50:29.649Z,2.74
2018-12-01T00:51:10.200Z,2.64
2018-12-01T00:51:50.848Z,2.64
2018-12-01T00:52:31.410Z,2.69
2018-12-01T00:53:11.985Z,2.71
2018-12-01T00:53:52.539Z,2.79
2018-12-01T00:54:33.093Z,2.79
2018-12-01T00:55:13.656Z,2.72
2018-12-01T00:55:54.259Z,2.71
2018-12-01T00:56:34.856Z,2.69
2018-12-01T00:57:15.420Z,2.71
2018-12-01T00:57:55.983Z,2.72
2018-12-01T00:58:36.546Z,2.72
2018-12-01T00:59:17.109Z,2.68
2018-12-01T00:59:57.671Z,2.69
2018-12-01T01:00:38.265Z,2.71
2018-12-01T01:01:18.822Z,2.69
2018-12-01T01:01:59.389Z,2.72
2018-12-01T01:02:39.942Z,2.72
2018-12-01T01:03:20.536Z,2.72
2018-12-01T01:04:01.069Z,2.62
2018-12-01T01:04:41.635Z,2.62
2018-12-01T01:05:22.259Z,2.74
2018-12-01T01:06:02.845Z,2.64
2018-12-01T01:06:43.434Z,2.64
2018-12-01T01:07:24.017Z,2.67
2018-12-01T01:08:04.570Z,2.74
2018-12-01T01:08:45.129Z,2.72
2018-12-01T01:09:25.705Z,2.62
2018-12-01T01:10:06.432Z,2.64
2018-12-01T01:10:47.005Z,2.61
2018-12-01T01:11:27.554Z,2.67
2018-12-01T01:12:08.115Z,2.68
2018-12-01T01:12:48.673Z,2.62
2018-12-01T01:13:29.227Z,2.65
2018-12-01T01:14:09.780Z,2.67
2018-12-01T01:14:50.334Z,2.65
2018-12-01T01:15:30.891Z,2.62
2018-12-01T01:16:11.446Z,2.64
2018-12-01T01:16:52.000Z,2.68
2018-12-01T01:17:32.583Z,2.71
2018-12-01T01:18:13.183Z,2.65
2018-12-01T01:18:53.737Z,2.75
2018-12-01T01:19:34.290Z,2.75
2018-12-01T01:20:14.847Z,2.75
2018-12-01T01:20:55.408Z,2.74
2018-12-01T01:21:35.988Z,2.74
2018-12-01T01:22:16.571Z,2.69
2018-12-01T01:22:57.133Z,2.69
2018-12-01T01:23:37.688Z,2.71
2018-12-01T01:24:18.250Z,2.71
2018-12-01T01:24:58.806Z,2.68
2018-12-01T01:25:39.382Z,2.69
2018-12-01T01:26:19.967Z,2.74
2018-12-01T01:27:00.543Z,2.75
2018-12-01T01:27:41.102Z,2.71
2018-12-01T01:28:21.657Z,2.75
2018-12-01T01:29:02.266Z,2.8
2018-12-01T01:29:42.825Z,2.75
2018-12-01T01:30:23.466Z,2.77
2018-12-01T01:31:04.141Z,2.75
2018-12-01T01:31:44.700Z,2.75
2018-12-01T01:32:25.258Z,2.75
2018-12-01T01:33:05.864Z,2.8
2018-12-01T01:33:46.414Z,2.79
2018-12-01T01:34:26.986Z,2.9
2018-12-01T01:35:07.541Z,2.79
2018-12-01T01:35:48.106Z,2.77
2018-12-01T01:36:28.686Z,2.79
2018-12-01T01:37:09.245Z,2.77
2018-12-01T01:37:49.815Z,2.89
2018-12-01T01:38:30.400Z,2.89
2018-12-01T01:39:11.014Z,2.92
2018-12-01T01:39:51.552Z,2.87
2018-12-01T01:40:32.139Z,2.85
2018-12-01T01:41:12.728Z,2.82
2018-12-01T01:41:53.291Z,2.89
2018-12-01T01:42:33.866Z,3.03
2018-12-01T01:43:14.448Z,2.87
2018-12-01T01:43:55.009Z,3.01
2018-12-01T01:44:35.578Z,2.95
2018-12-01T01:45:16.147Z,3
2018-12-01T01:45:56.701Z,3.05
2018-12-01T01:46:37.290Z,3.08
2018-12-01T01:47:17.883Z,3.1
2018-12-01T01:47:58.401Z,3.05
2018-12-01T01:48:38.946Z,3.07
2018-12-01T01:49:19.542Z,3.07
2018-12-01T01:50:00.102Z,3.03
2018-12-01T01:50:40.668Z,3.01
2018-12-01T01:51:21.225Z,2.98
2018-12-01T01:52:01.811Z,2.98
2018-12-01T01:52:42.377Z,3
2018-12-01T01:53:22.962Z,3.03
2018-12-01T01:54:03.528Z,3
2018-12-01T01:54:44.088Z,2.98
2018-12-01T01:55:24.663Z,2.97
2018-12-01T01:56:05.224Z,2.87
2018-12-01T01:56:45.768Z,2.86
2018-12-01T01:57:26.326Z,2.89
2018-12-01T01:58:06.892Z,2.86
2018-12-01T01:58:47.466Z,2.85
2018-12-01T01:59:28.016Z,2.9
2018-12-01T02:00:08.587Z,2.85
2018-12-01T02:00:49.159Z,2.86
2018-12-01T02:01:29.712Z,2.83
2018-12-01T02:02:10.286Z,2.87
2018-12-01T02:02:50.845Z,3
2018-12-01T02:03:31.398Z,2.95
2018-12-01T02:04:11.971Z,3.04
2018-12-01T02:04:52.538Z,3
2018-12-01T02:05:33.115Z,2.92
2018-12-01T02:06:13.676Z,3.08
2018-12-01T02:06:54.240Z,3.05
2018-12-01T02:07:34.797Z,3.08
2018-12-01T02:08:15.356Z,2.97
2018-12-01T02:08:55.916Z,3.1
2018-12-01T02:09:36.468Z,3.07
2018-12-01T02:10:17.304Z,3.1
2018-12-01T02:10:57.888Z,3.1
2018-12-01T02:11:38.456Z,3.1
2018-12-01T02:12:19.010Z,3.08
2018-12-01T02:12:59.558Z,3.05
2018-12-01T02:13:40.119Z,3.14
2018-12-01T02:14:20.687Z,3.08
2018-12-01T02:15:01.279Z,3.1
2018-12-01T02:15:41.823Z,3.04
2018-12-01T02:16:22.380Z,3.04
2018-12-01T02:17:02.966Z,3.05
2018-12-01T02:17:43.539Z,3.03
2018-12-01T02:18:24.119Z,2.98
2018-12-01T02:19:04.681Z,3.03
2018-12-01T02:19:45.225Z,2.98
2018-12-01T02:20:25.780Z,3.07
2018-12-01T02:21:06.361Z,2.97
2018-12-01T02:21:46.941Z,2.97
2018-12-01T02:22:27.520Z,2.87
2018-12-01T02:23:08.068Z,2.8
2018-12-01T02:23:48.635Z,2.85
2018-12-01T02:24:29.183Z,2.89
2018-12-01T02:25:09.809Z,2.82
2018-12-01T02:25:50.334Z,2.85
2018-12-01T02:26:30.900Z,2.92
2018-12-01T02:27:11.451Z,2.92
2018-12-01T02:27:52.017Z,2.85
2018-12-01T02:28:32.581Z,2.87
2018-12-01T02:29:13.132Z,2.9
2018-12-01T02:29:53.701Z,2.86
2018-12-01T02:30:34.253Z,2.86
2018-12-01T02:31:14.809Z,2.85
2018-12-01T02:31:55.381Z,2.97
2018-12-01T02:32:35.952Z,2.97
2018-12-01T02:33:16.531Z,3
2018-12-01T02:33:57.090Z,2.93
2018-12-01T02:34:37.654Z,2.98
2018-12-01T02:35:18.208Z,3.03
2018-12-01T02:35:58.779Z,3.05
2018-12-01T02:36:39.339Z,3.08
2018-12-01T02:37:19.902Z,3.1
2018-12-01T02:38:00.501Z,3.13
2018-12-01T02:38:41.003Z,3.1
2018-12-01T02:39:21.568Z,3.05
2018-12-01T02:40:02.100Z,3.07
2018-12-01T02:40:42.708Z,3.07
2018-12-01T02:41:23.334Z,3.19
2018-12-01T02:42:03.915Z,3.18
2018-12-01T02:42:44.465Z,3.18
2018-12-01T02:43:25.034Z,3.08
2018-12-01T02:44:05.578Z,3.19
2018-12-01T02:44:46.138Z,3.07
2018-12-01T02:45:26.703Z,3.07
2018-12-01T02:46:07.253Z,3.05
2018-12-01T02:46:47.813Z,3.11
2018-12-01T02:47:28.369Z,3.08
2018-12-01T02:48:09.009Z,3.11
2018-12-01T02:48:49.560Z,3.07
2018-12-01T02:49:30.120Z,3
2018-12-01T02:50:10.693Z,3.11
2018-12-01T02:50:51.247Z,3.14
2018-12-01T02:51:31.838Z,3.08
2018-12-01T02:52:12.398Z,3.08
2018-12-01T02:52:52.954Z,3.14
2018-12-01T02:53:33.501Z,3.11
2018-12-01T02:54:14.071Z,3.13
2018-12-01T02:54:54.619Z,3.18
2018-12-01T02:55:35.179Z,3.19
2018-12-01T02:56:15.770Z,3.1
2018-12-01T02:56:56.314Z,3.11
2018-12-01T02:57:36.926Z,3.16
2018-12-01T02:58:17.496Z,3.13
2018-12-01T02:58:58.063Z,3.23
2018-12-01T02:59:38.612Z,3.16
2018-12-01T03:00:19.193Z,3.21
2018-12-01T03:00:59.752Z,3.16
2018-12-01T03:01:40.317Z,3.14
2018-12-01T03:02:20.863Z,3.18
2018-12-01T03:03:01.430Z,3.13
2018-12-01T03:03:42.005Z,3.21
2018-12-01T03:04:22.559Z,3.23
2018-12-01T03:05:03.151Z,3.18
2018-12-01T03:05:43.699Z,3.23
2018-12-01T03:06:24.278Z,3.13
2018-12-01T03:07:04.880Z,3.11
2018-12-01T03:07:45.456Z,3.19
2018-12-01T03:08:26.028Z,3.07
2018-12-01T03:09:06.586Z,3.18
2018-12-01T03:09:47.145Z,3.21
2018-12-01T03:10:27.692Z,3.21
2018-12-01T03:11:08.285Z,3.22
2018-12-01T03:11:48.873Z,3.26
2018-12-01T03:12:29.424Z,3.19
2018-12-01T03:13:10.007Z,3.21
2018-12-01T03:13:50.569Z,3.29
2018-12-01T03:14:31.122Z,3.18
2018-12-01T03:15:11.682Z,3.31
2018-12-01T03:15:52.243Z,3.25
2018-12-01T03:16:32.796Z,3.25
2018-12-01T03:17:13.359Z,3.26
2018-12-01T03:17:53.912Z,3.29
2018-12-01T03:18:34.463Z,3.25
2018-12-01T03:19:15.026Z,3.25
2018-12-01T03:19:55.586Z,3.29
2018-12-01T03:20:36.141Z,3.23
2018-12-01T03:21:16.701Z,3.26
2018-12-01T03:21:57.266Z,3.19
2018-12-01T03:22:37.829Z,3.22
2018-12-01T03:23:18.410Z,3.19
2018-12-01T03:23:58.958Z,3.16
2018-12-01T03:24:39.559Z,3.16
2018-12-01T03:25:20.169Z,3.21
2018-12-01T03:26:00.733Z,3.19
2018-12-01T03:26:41.287Z,3.1
2018-12-01T03:27:21.850Z,3.16
2018-12-01T03:28:02.417Z,3.13
2018-12-01T03:28:43.063Z,3.21
2018-12-01T03:29:23.552Z,3.22
2018-12-01T03:30:04.127Z,3.22
2018-12-01T03:30:44.708Z,3.08
2018-12-01T03:31:25.273Z,3.13
2018-12-01T03:32:05.828Z,3.19
2018-12-01T03:32:46.375Z,3.14
2018-12-01T03:33:26.940Z,3.14
2018-12-01T03:34:07.485Z,3.16
2018-12-01T03:34:48.044Z,3.26
2018-12-01T03:35:28.600Z,3.18
2018-12-01T03:36:09.171Z,3.22
2018-12-01T03:36:49.726Z,3.22
2018-12-01T03:37:30.295Z,3.25
2018-12-01T03:38:10.870Z,3.23
2018-12-01T03:38:51.503Z,3.26
2018-12-01T03:39:32.059Z,3.26
2018-12-01T03:40:12.709Z,3.26
2018-12-01T03:40:53.262Z,3.31
2018-12-01T03:41:33.832Z,3.28
2018-12-01T03:42:14.432Z,3.26
2018-12-01T03:42:54.980Z,3.26
2018-12-01T03:43:35.572Z,3.16
2018-12-01T03:44:16.146Z,3.19
2018-12-01T03:44:56.726Z,3.22
2018-12-01T03:45:37.283Z,3.18
2018-12-01T03:46:17.891Z,3.16
2018-12-01T03:46:58.480Z,3.19
2018-12-01T03:47:39.038Z,3.16
2018-12-01T03:48:19.589Z,3.1
2018-12-01T03:49:00.182Z,3.16
2018-12-01T03:49:40.745Z,3.16
2018-12-01T03:50:21.314Z,3.18
2018-12-01T03:51:01.858Z,3.14
2018-12-01T03:51:42.424Z,3.1
2018-12-01T03:52:23.005Z,3.18
2018-12-01T03:53:03.569Z,3.22
2018-12-01T03:53:44.166Z,3.16
2018-12-01T03:54:24.726Z,3.26
2018-12-01T03:55:05.283Z,3.1
2018-12-01T03:55:45.838Z,3.13
2018-12-01T03:56:26.392Z,3.21
2018-12-01T03:57:06.947Z,3.16
2018-12-01T03:57:47.500Z,3.11
2018-12-01T03:58:28.093Z,3.13
2018-12-01T03:59:08.659Z,3.16
2018-12-01T03:59:49.213Z,3.19
2018-12-01T04:00:29.790Z,3.13
2018-12-01T04:01:10.326Z,3.05
2018-12-01T04:01:50.886Z,3.1
2018-12-01T04:02:31.469Z,3.19
2018-12-01T04:03:12.007Z,3.1
2018-12-01T04:03:52.558Z,3.14
2018-12-01T04:04:33.120Z,3.23
2018-12-01T04:05:13.692Z,3.25
2018-12-01T04:05:54.266Z,3.26
2018-12-01T04:06:34.821Z,3.21
2018-12-01T04:07:15.384Z,3.23
2018-12-01T04:07:55.978Z,3.26
2018-12-01T04:08:36.526Z,3.29
2018-12-01T04:09:17.118Z,3.26
2018-12-01T04:09:57.656Z,3.28
2018-12-01T04:10:38.231Z,3.25
2018-12-01T04:11:18.802Z,3.23
2018-12-01T04:11:59.371Z,3.22
2018-12-01T04:12:39.927Z,3.16
2018-12-01T04:13:20.496Z,3.22
2018-12-01T04:14:01.062Z,3.14
2018-12-01T04:14:41.616Z,3.07
2018-12-01T04:15:22.186Z,3.07
2018-12-01T04:16:02.731Z,3.05
2018-12-01T04:16:43.283Z,3.05
2018-12-01T04:17:23.848Z,3.11
2018-12-01T04:18:04.413Z,3.11
2018-12-01T04:18:44.965Z,3.1
2018-12-01T04:19:25.528Z,3.11
2018-12-01T04:20:06.097Z,3.11
2018-12-01T04:20:46.649Z,3.08
2018-12-01T04:21:27.243Z,3.11
2018-12-01T04:22:07.823Z,3.1
2018-12-01T04:22:48.393Z,2.98
2018-12-01T04:23:28.969Z,2.95
2018-12-01T04:24:09.569Z,3.04
2018-12-01T04:24:50.126Z,3.05
2018-12-01T04:25:30.674Z,3.03
2018-12-01T04:26:11.242Z,2.98
2018-12-01T04:26:51.792Z,2.93
2018-12-01T04:27:32.345Z,2.98
2018-12-01T04:28:12.934Z,2.93
2018-12-01T04:28:53.499Z,3.03
2018-12-01T04:29:34.059Z,3.03
2018-12-01T04:30:14.613Z,3.13
2018-12-01T04:30:55.176Z,3.08
2018-12-01T04:31:35.727Z,2.98
2018-12-01T04:32:16.286Z,3.03
2018-12-01T04:32:56.851Z,3.03
2018-12-01T04:33:37.409Z,2.97
2018-12-01T04:34:17.948Z,2.93
2018-12-01T04:34:58.519Z,3.05
2018-12-01T04:35:39.080Z,3.05
2018-12-01T04:36:19.645Z,3.11
2018-12-01T04:37:00.202Z,3.11
2018-12-01T04:37:40.758Z,3.03
2018-12-01T04:38:21.331Z,3.07
2018-12-01T04:39:01.880Z,3.04
2018-12-01T04:39:42.440Z,3.05
2018-12-01T04:40:23.016Z,3.1
2018-12-01T04:41:03.574Z,3.05
2018-12-01T04:41:44.129Z,3.11
2018-12-01T04:42:24.698Z,3.08
2018-12-01T04:43:05.261Z,3.13
2018-12-01T04:43:45.819Z,3.14
2018-12-01T04:44:26.361Z,3.18
2018-12-01T04:45:06.925Z,3.14
2018-12-01T04:45:47.486Z,3.07
2018-12-01T04:46:28.050Z,3.07
2018-12-01T04:47:08.614Z,3.16
2018-12-01T04:47:49.170Z,3.11
2018-12-01T04:48:29.720Z,3.07
2018-12-01T04:49:10.267Z,3.14
2018-12-01T04:49:50.828Z,3.18
2018-12-01T04:50:31.397Z,3.08
2018-12-01T04:51:11.939Z,3.11
2018-12-01T04:51:52.497Z,3.07
2018-12-01T04:52:33.047Z,3.13
2018-12-01T04:53:13.623Z,3.16
2018-12-01T04:53:54.180Z,3.08
2018-12-01T04:54:34.737Z,3.14
2018-12-01T04:55:15.290Z,3.07
2018-12-01T04:55:55.846Z,3.07
2018-12-01T04:56:36.412Z,3.07
2018-12-01T04:57:17.010Z,3.05
2018-12-01T04:57:57.564Z,3.11
2018-12-01T04:58:38.142Z,3.14
2018-12-01T04:59:18.717Z,3.1
2018-12-01T04:59:59.258Z,3.21
2018-12-01T05:00:39.905Z,3.16
2018-12-01T05:01:20.443Z,3.1
2018-12-01T05:02:01.024Z,3.18
2018-12-01T05:02:41.581Z,3.14
2018-12-01T05:03:22.145Z,3.22
2018-12-01T05:04:02.776Z,3.19
2018-12-01T05:04:43.344Z,3.23
2018-12-01T05:05:23.902Z,3.31
2018-12-01T05:06:04.470Z,3.31
2018-12-01T05:06:45.066Z,3.22
2018-12-01T05:07:25.617Z,3.32
2018-12-01T05:08:06.204Z,3.32
2018-12-01T05:08:46.755Z,3.32
2018-12-01T05:09:27.318Z,3.23
2018-12-01T05:10:08.107Z,3.31
2018-12-01T05:10:48.689Z,3.29
2018-12-01T05:11:29.320Z,3.29
2018-12-01T05:12:09.884Z,3.32
2018-12-01T05:12:50.435Z,3.37
2018-12-01T05:13:30.996Z,3.36
2018-12-01T05:14:11.543Z,3.32
2018-12-01T05:14:52.111Z,3.32
2018-12-01T05:15:32.671Z,3.42
2018-12-01T05:16:13.217Z,3.36
2018-12-01T05:16:53.790Z,3.37
2018-12-01T05:17:34.367Z,3.42
2018-12-01T05:18:14.923Z,3.42
2018-12-01T05:18:55.489Z,3.34
2018-12-01T05:19:36.035Z,3.37
2018-12-01T05:20:16.607Z,3.47
2018-12-01T05:20:57.199Z,3.42
2018-12-01T05:21:37.714Z,3.47
2018-12-01T05:22:18.274Z,3.4
2018-12-01T05:22:58.830Z,3.42
2018-12-01T05:23:39.394Z,3.36
2018-12-01T05:24:19.947Z,3.41
2018-12-01T05:25:00.510Z,3.34
2018-12-01T05:25:41.049Z,3.37
2018-12-01T05:26:21.610Z,3.29
2018-12-01T05:27:02.148Z,3.28
2018-12-01T05:27:42.714Z,3.26
2018-12-01T05:28:23.301Z,3.34
2018-12-01T05:29:03.881Z,3.28
2018-12-01T05:29:44.498Z,3.34
2018-12-01T05:30:25.060Z,3.4
2018-12-01T05:31:05.632Z,3.4
2018-12-01T05:31:46.234Z,3.47
2018-12-01T05:32:26.798Z,3.44
2018-12-01T05:33:07.351Z,3.44
2018-12-01T05:33:47.912Z,3.47
2018-12-01T05:34:28.473Z,3.44
2018-12-01T05:35:09.032Z,3.42
2018-12-01T05:35:49.595Z,3.4
2018-12-01T05:36:30.167Z,3.44
2018-12-01T05:37:10.745Z,3.44
2018-12-01T05:37:51.314Z,3.4
2018-12-01T05:38:31.890Z,3.4
2018-12-01T05:39:12.441Z,3.47
2018-12-01T05:39:52.997Z,3.4
2018-12-01T05:40:33.607Z,3.41
2018-12-01T05:41:14.156Z,3.45
2018-12-01T05:41:54.736Z,3.48
2018-12-01T05:42:35.298Z,3.42
2018-12-01T05:43:15.877Z,3.51
2018-12-01T05:43:56.492Z,3.47
2018-12-01T05:44:37.045Z,3.5
2018-12-01T05:45:17.615Z,3.48
2018-12-01T05:45:58.182Z,3.51
2018-12-01T05:46:38.829Z,3.5
2018-12-01T05:47:19.385Z,3.56
2018-12-01T05:47:59.938Z,3.47
2018-12-01T05:48:40.493Z,3.5
2018-12-01T05:49:21.044Z,3.56
2018-12-01T05:50:01.592Z,3.53
2018-12-01T05:50:42.139Z,3.51
2018-12-01T05:51:22.689Z,3.48
2018-12-01T05:52:03.246Z,3.53
2018-12-01T05:52:43.805Z,3.47
2018-12-01T05:53:24.386Z,3.53
2018-12-01T05:54:04.984Z,3.53
2018-12-01T05:54:45.557Z,3.51
2018-12-01T05:55:26.110Z,3.55
2018-12-01T05:56:06.668Z,3.5
2018-12-01T05:56:47.231Z,3.53
2018-12-01T05:57:27.793Z,3.5
2018-12-01T05:58:08.358Z,3.48
2018-12-01T05:58:48.927Z,3.53
2018-12-01T05:59:29.495Z,3.51
2018-12-01T06:00:10.058Z,3.53
2018-12-01T06:00:50.614Z,3.66
2018-12-01T06:01:31.161Z,3.58
2018-12-01T06:02:11.730Z,3.48
2018-12-01T06:02:52.320Z,3.56
2018-12-01T06:03:32.879Z,3.58
2018-12-01T06:04:13.441Z,3.63
2018-12-01T06:04:54.002Z,3.63
2018-12-01T06:05:34.552Z,3.62
2018-12-01T06:06:15.105Z,3.66
2018-12-01T06:06:55.702Z,3.65
2018-12-01T06:07:36.273Z,3.6
2018-12-01T06:08:16.876Z,3.59
2018-12-01T06:08:57.463Z,3.62
2018-12-01T06:09:38.042Z,3.55
2018-12-01T06:10:18.594Z,3.62
2018-12-01T06:10:59.150Z,3.62
2018-12-01T06:11:39.752Z,3.62
2018-12-01T06:12:20.314Z,3.65
2018-12-01T06:13:00.888Z,3.7
2018-12-01T06:13:41.449Z,3.63
2018-12-01T06:14:22.013Z,3.69
2018-12-01T06:15:02.584Z,3.68
2018-12-01T06:15:43.130Z,3.7
2018-12-01T06:16:23.703Z,3.63
2018-12-01T06:17:04.269Z,3.65
2018-12-01T06:17:44.843Z,3.66
2018-12-01T06:18:25.424Z,3.62
2018-12-01T06:19:05.966Z,3.63
2018-12-01T06:19:46.527Z,3.58
2018-12-01T06:20:27.127Z,3.68
2018-12-01T06:21:07.686Z,3.63
2018-12-01T06:21:48.241Z,3.7
2018-12-01T06:22:28.795Z,3.65
2018-12-01T06:23:09.362Z,3.6
2018-12-01T06:23:49.940Z,3.62
2018-12-01T06:24:30.496Z,3.6
2018-12-01T06:25:11.074Z,3.63
2018-12-01T06:25:51.631Z,3.58
2018-12-01T06:26:32.196Z,3.65
2018-12-01T06:27:12.751Z,3.59
2018-12-01T06:27:53.295Z,3.62
2018-12-01T06:28:33.863Z,3.63
2018-12-01T06:29:14.661Z,3.62
2018-12-01T06:29:55.345Z,3.63
2018-12-01T06:30:35.917Z,3.58
2018-12-01T06:31:16.724Z,3.66
2018-12-01T06:31:57.319Z,3.66
2018-12-01T06:32:37.923Z,3.68
2018-12-01T06:33:18.505Z,3.69
2018-12-01T06:33:59.089Z,3.69
2018-12-01T06:34:39.672Z,3.74
2018-12-01T06:35:20.266Z,3.77
2018-12-01T06:36:00.914Z,3.78
2018-12-01T06:36:41.488Z,3.78
2018-12-01T06:37:22.053Z,3.83
2018-12-01T06:38:02.668Z,3.77
2018-12-01T06:38:43.242Z,3.77
2018-12-01T06:39:23.798Z,3.83
2018-12-01T06:40:04.356Z,3.8
2018-12-01T06:40:44.915Z,3.8
2018-12-01T06:41:25.482Z,3.8
2018-12-01T06:42:06.044Z,3.81
2018-12-01T06:42:49.429Z,3.84
2018-12-01T06:45:37.957Z,3.88
2018-12-01T06:46:18.511Z,3.94
2018-12-01T06:46:59.098Z,3.87
2018-12-01T06:47:39.665Z,3.81
2018-12-01T06:48:20.224Z,3.81
2018-12-01T06:49:00.780Z,3.88
2018-12-01T06:49:41.356Z,3.83
2018-12-01T06:50:22.004Z,3.92
2018-12-01T06:51:02.601Z,3.84
2018-12-01T06:51:43.210Z,3.91
2018-12-01T06:52:23.794Z,3.88
2018-12-01T06:53:04.745Z,3.92
2018-12-01T06:53:45.304Z,3.94
2018-12-01T06:54:25.859Z,3.91
2018-12-01T06:55:06.424Z,4.01
2018-12-01T06:55:46.985Z,3.92
2018-12-01T06:56:27.533Z,3.88
2018-12-01T06:57:08.131Z,3.92
2018-12-01T06:57:48.689Z,4.01
2018-12-01T06:58:29.255Z,3.98
2018-12-01T06:59:09.811Z,3.98
2018-12-01T06:59:50.376Z,3.98
2018-12-01T07:00:30.943Z,3.96
2018-12-01T07:01:11.496Z,4.01
2018-12-01T07:01:52.048Z,4.05
2018-12-01T07:02:32.603Z,3.95
2018-12-01T07:03:13.201Z,3.87
2018-12-01T07:03:53.752Z,4.01
2018-12-01T07:04:34.330Z,3.94
2018-12-01T07:05:14.886Z,4.02
2018-12-01T07:05:55.448Z,4.01
2018-12-01T07:06:36.019Z,4.04
2018-12-01T07:07:16.576Z,4.04
2018-12-01T07:07:57.127Z,4.01
2018-12-01T07:08:37.686Z,4.02
2018-12-01T07:09:18.233Z,4.04
2018-12-01T07:09:58.829Z,4.01
2018-12-01T07:10:39.349Z,4.02
2018-12-01T07:11:19.892Z,4.05
2018-12-01T07:12:00.469Z,4.04
2018-12-01T07:12:41.041Z,4.04
2018-12-01T07:13:21.603Z,4.02
2018-12-01T07:14:02.162Z,4.1
2018-12-01T07:14:42.734Z,3.99
2018-12-01T07:15:23.321Z,4.06
2018-12-01T07:16:03.876Z,4.13
2018-12-01T07:16:44.441Z,4.06
2018-12-01T07:17:25.005Z,4.13
2018-12-01T07:18:05.567Z,4.13
2018-12-01T07:18:46.159Z,4.16
2018-12-01T07:19:26.726Z,4.23
2018-12-01T07:20:07.313Z,4.16
2018-12-01T07:20:47.880Z,4.17
2018-12-01T07:21:28.513Z,4.24
2018-12-01T07:22:09.031Z,4.28
2018-12-01T07:22:49.600Z,4.26
2018-12-01T07:23:30.176Z,4.38
2018-12-01T07:24:10.726Z,4.5
2018-12-01T07:24:51.318Z,4.67
2018-12-01T07:25:31.874Z,4.68
2018-12-01T07:26:12.448Z,4.78
2018-12-01T07:26:53.015Z,5.02
2018-12-01T07:27:33.568Z,5.17
2018-12-01T07:28:14.117Z,5.35
2018-12-01T07:28:54.693Z,5.38
2018-12-01T07:29:35.323Z,5.41
2018-12-01T07:30:15.849Z,5.36
2018-12-01T07:30:56.433Z,5.29
2018-12-01T07:31:37.001Z,5.29
2018-12-01T07:32:17.550Z,5.23
2018-12-01T07:32:58.115Z,5.18
2018-12-01T07:33:38.783Z,5.11
2018-12-01T07:34:19.383Z,5.02
2018-12-01T07:34:59.966Z,5
2018-12-01T07:35:40.560Z,5.02
2018-12-01T07:36:21.140Z,4.94
2018-12-01T07:37:01.702Z,4.93
2018-12-01T07:37:42.296Z,4.9
2018-12-01T07:38:22.852Z,4.93
2018-12-01T07:39:03.424Z,4.92
2018-12-01T07:39:43.987Z,4.75
2018-12-01T07:40:24.543Z,4.77
2018-12-01T07:41:05.096Z,4.73
2018-12-01T07:41:45.653Z,4.74
2018-12-01T07:42:27.146Z,4.74
2018-12-01T07:43:07.699Z,4.7
2018-12-01T07:43:48.327Z,4.71
2018-12-01T07:44:28.954Z,4.68
2018-12-01T07:45:09.541Z,4.63
2018-12-01T07:45:50.138Z,4.67
2018-12-01T07:46:30.751Z,4.63
2018-12-01T07:47:11.309Z,4.59
2018-12-01T07:47:51.914Z,4.71
2018-12-01T07:48:32.483Z,4.59
2018-12-01T07:49:13.036Z,4.68
2018-12-01T07:49:53.595Z,4.68
2018-12-01T07:50:34.184Z,4.7
2018-12-01T07:51:14.752Z,4.71
2018-12-01T07:51:55.320Z,4.68
2018-12-01T07:53:42.846Z,4.73
2018-12-01T07:54:23.406Z,4.75
2018-12-01T07:55:03.997Z,4.77
2018-12-01T07:55:44.568Z,4.77
2018-12-01T07:56:25.124Z,4.78
2018-12-01T07:57:05.686Z,4.78
2018-12-01T07:57:46.234Z,4.92
2018-12-01T07:58:27.613Z,4.92
2018-12-01T07:59:08.184Z,4.9
2018-12-01T07:59:48.785Z,4.9
2018-12-01T08:00:29.345Z,4.94
2018-12-01T08:01:09.899Z,4.94
2018-12-01T08:01:50.484Z,5.04
2018-12-01T08:02:31.061Z,5.07
2018-12-01T08:03:11.613Z,5.12
2018-12-01T08:03:52.174Z,5.07
2018-12-01T08:04:32.741Z,5.11
2018-12-01T08:05:13.288Z,5.05
2018-12-01T08:05:53.850Z,5.08
2018-12-01T08:06:34.388Z,5.1
2018-12-01T08:07:14.950Z,5
2018-12-01T08:07:55.500Z,5.02
2018-12-01T08:08:36.167Z,5.1
2018-12-01T08:09:16.725Z,5.15
2018-12-01T08:09:57.291Z,5.21
2018-12-01T08:10:37.861Z,5.17
2018-12-01T08:11:18.481Z,5.2
2018-12-01T08:11:59.059Z,5.2
2018-12-01T08:12:39.684Z,5.17
2018-12-01T08:13:20.274Z,5.26
2018-12-01T08:14:00.857Z,5.14
2018-12-01T08:14:41.459Z,5.26
2018-12-01T08:15:22.013Z,5.17
2018-12-01T08:16:02.587Z,5.18
2018-12-01T08:16:43.152Z,5.1
2018-12-01T08:17:23.711Z,5.07
2018-12-01T08:18:04.356Z,5.07
2018-12-01T08:18:44.989Z,5.17
2018-12-01T08:19:25.548Z,5.1
2018-12-01T08:20:06.141Z,5.02
2018-12-01T08:20:46.699Z,5.08
2018-12-01T08:23:29.684Z,5.18
2018-12-01T08:24:10.251Z,5.33
2018-12-01T08:24:50.805Z,5.35
2018-12-01T08:25:31.356Z,5.36
2018-12-01T08:26:11.942Z,5.66
2018-12-01T08:26:52.489Z,5.8
2018-12-01T08:29:31.461Z,6.36
2018-12-01T08:30:12.025Z,6.28
2018-12-01T08:30:52.781Z,6.26
2018-12-01T08:31:33.355Z,6.26
2018-12-01T08:32:14.401Z,6.14
2018-12-01T08:32:54.956Z,6.08
2018-12-01T08:33:35.513Z,6.01
2018-12-01T08:34:16.326Z,5.94
2018-12-01T08:34:56.923Z,5.97
2018-12-01T08:35:37.550Z,5.93
2018-12-01T08:36:18.139Z,5.9
2018-12-01T08:36:58.760Z,5.8
2018-12-01T08:37:39.407Z,5.72
2018-12-01T08:38:20.037Z,5.73
2018-12-01T08:39:00.610Z,5.64
2018-12-01T08:39:41.212Z,5.66
2018-12-01T08:40:21.790Z,5.68
2018-12-01T08:41:02.373Z,5.68
2018-12-01T08:41:42.947Z,5.48
2018-12-01T08:42:23.546Z,5.5
2018-12-01T08:43:04.189Z,5.57
2018-12-01T08:43:45.203Z,5.53
2018-12-01T08:44:25.339Z,5.57
2018-12-01T08:45:05.914Z,5.48
2018-12-01T08:45:46.469Z,5.54
2018-12-01T08:46:27.020Z,5.57
2018-12-01T08:47:07.563Z,5.57
2018-12-01T08:47:48.119Z,5.51
2018-12-01T08:48:29.563Z,5.54
2018-12-01T08:49:10.174Z,5.48
2018-12-01T08:49:50.730Z,5.57
2018-12-01T08:50:31.458Z,5.53
2018-12-01T08:51:12.013Z,5.51
2018-12-01T08:51:52.584Z,5.65
2018-12-01T08:52:33.136Z,5.64
2018-12-01T08:53:13.692Z,5.65
2018-12-01T08:53:54.257Z,5.64
2018-12-01T08:54:34.815Z,5.62
2018-12-01T08:55:15.412Z,5.66
2018-12-01T08:55:55.962Z,5.66
2018-12-01T08:56:36.527Z,5.65
2018-12-01T08:57:17.100Z,5.64
2018-12-01T08:57:57.663Z,5.68
2018-12-01T08:58:38.207Z,5.71
2018-12-01T08:59:18.777Z,5.66
2018-12-01T08:59:59.323Z,5.71
2018-12-01T09:00:39.889Z,5.76
2018-12-01T09:01:20.440Z,5.75
2018-12-01T09:02:00.992Z,5.68
2018-12-01T09:02:41.542Z,5.76
2018-12-01T09:03:22.084Z,5.72
2018-12-01T09:04:02.634Z,5.69
2018-12-01T09:04:43.188Z,5.68
2018-12-01T09:05:23.742Z,5.69
2018-12-01T09:06:04.285Z,5.76
2018-12-01T09:06:44.834Z,5.71
2018-12-01T09:07:25.392Z,5.68
2018-12-01T09:08:05.938Z,5.69
2018-12-01T09:08:46.500Z,5.72
2018-12-01T09:09:27.069Z,5.75